createdAt,value
2023-04-25T00:02:12.556Z,18.53
2023-04-25T00:04:40.348Z,15.07
2023-04-25T00:07:07.357Z,21.25
2023-04-25T00:09:34.303Z,17.17
2023-04-25T00:12:02.249Z,17.47
2023-04-25T00:14:28.840Z,17.85
2023-04-25T00:16:55.732Z,15.35
2023-04-25T00:19:22.644Z,17.30
2023-04-25T00:21:49.544Z,12.30
2023-04-25T00:24:16.226Z,19.73
2023-04-25T00:26:42.823Z,21.73
2023-04-25T00:29:10.118Z,18.87
2023-04-25T00:31:36.755Z,22.87
2023-04-25T00:34:04.105Z,13.67
2023-04-25T00:36:31.620Z,20.23
2023-04-25T00:38:58.251Z,13.73
2023-04-25T00:41:27.141Z,17.63
2023-04-25T00:43:55.589Z,16.40
2023-04-25T00:46:22.305Z,19.67
2023-04-25T00:48:48.875Z,14.80
2023-04-25T00:51:19.870Z,22.50
2023-04-25T00:53:47.589Z,17.47
2023-04-25T00:56:14.360Z,17.17
2023-04-25T00:58:42.259Z,21.17
2023-04-25T01:01:11.442Z,18.47
2023-04-25T01:03:43.969Z,19.60
2023-04-25T01:06:12.101Z,15.07
2023-04-25T01:08:40.436Z,10.17
2023-04-25T01:11:07.905Z,16.90
2023-04-25T01:13:35.262Z,17.57
2023-04-25T01:16:03.020Z,17.03
2023-04-25T01:18:29.965Z,16.57
2023-04-25T01:20:56.719Z,15.80
2023-04-25T01:23:24.562Z,15.30
2023-04-25T01:25:52.064Z,14.87
2023-04-25T01:28:18.975Z,17.97
2023-04-25T01:30:45.918Z,11.40
2023-04-25T01:33:14.483Z,15.27
2023-04-25T01:35:41.280Z,14.50
2023-04-25T01:38:07.859Z,14.73
2023-04-25T01:40:36.962Z,19.07
2023-04-25T01:43:03.615Z,14.87
2023-04-25T01:45:30.234Z,15.47
2023-04-25T01:48:00.178Z,12.80
2023-04-25T01:50:26.895Z,14.80
2023-04-25T01:52:54.812Z,13.93
2023-04-25T01:55:21.408Z,13.07
2023-04-25T01:57:48.333Z,9.67
2023-04-25T02:00:15.139Z,15.07
2023-04-25T02:02:42.812Z,11.50
2023-04-25T02:05:09.884Z,12.67
2023-04-25T02:07:36.639Z,10.40
2023-04-25T02:10:03.990Z,12.33
2023-04-25T02:12:30.858Z,12.63
2023-04-25T02:14:57.464Z,15.60
2023-04-25T02:17:24.071Z,17.93
2023-04-25T02:19:51.115Z,11.83
2023-04-25T02:22:17.663Z,14.07
2023-04-25T02:24:44.340Z,16.83
2023-04-25T02:27:11.591Z,14.03
2023-04-25T02:29:38.130Z,14.87
2023-04-25T02:32:05.025Z,19.13
2023-04-25T02:34:31.657Z,16.53
2023-04-25T02:36:58.496Z,12.87
2023-04-25T02:39:26.125Z,12.97
2023-04-25T02:41:53.286Z,12.73
2023-04-25T02:44:19.813Z,13.77
2023-04-25T02:46:47.289Z,12.67
2023-04-25T02:49:13.858Z,11.90
2023-04-25T02:51:40.424Z,15.13
2023-04-25T02:54:07.493Z,16.47
2023-04-25T02:56:34.312Z,16.27
2023-04-25T02:59:00.842Z,13.70
2023-04-25T03:01:27.663Z,17.07
2023-04-25T03:03:54.840Z,13.87
2023-04-25T03:06:21.874Z,10.37
2023-04-25T03:08:48.404Z,16.90
2023-04-25T03:11:14.917Z,17.73
2023-04-25T03:13:41.750Z,17.93
2023-04-25T03:16:08.686Z,15.07
2023-04-25T03:18:35.476Z,11.97
2023-04-25T03:21:02.102Z,16.53
2023-04-25T03:23:28.682Z,19.07
2023-04-25T03:25:55.478Z,18.33
2023-04-25T03:28:22.461Z,15.80
2023-04-25T03:30:49.125Z,12.47
2023-04-25T03:33:15.886Z,14.60
2023-04-25T03:35:43.472Z,15.37
2023-04-25T03:38:10.017Z,10.10
2023-04-25T03:40:36.869Z,15.83
2023-04-25T03:43:03.406Z,13.93
2023-04-25T03:45:30.031Z,13.63
2023-04-25T03:47:56.844Z,9.67
2023-04-25T03:50:23.519Z,15.40
2023-04-25T03:52:50.869Z,16.87
2023-04-25T03:55:17.569Z,14.97
2023-04-25T03:57:45.904Z,11.83
2023-04-25T04:00:13.429Z,15.57
2023-04-25T04:02:41.365Z,9.30
2023-04-25T04:05:09.404Z,12.50
2023-04-25T04:07:40.851Z,12.37
2023-04-25T04:10:08.609Z,11.77
2023-04-25T04:12:35.282Z,12.07
2023-04-25T04:15:06.840Z,8.00
2023-04-25T04:17:34.081Z,7.33
2023-04-25T04:20:00.931Z,9.40
2023-04-25T04:22:27.495Z,14.80
2023-04-25T04:24:55.214Z,8.83
2023-04-25T04:27:22.655Z,12.93
2023-04-25T04:29:50.213Z,8.40
2023-04-25T04:32:17.092Z,13.43
2023-04-25T04:35:02.172Z,12.03
2023-04-25T04:37:28.757Z,9.80
2023-04-25T04:39:56.351Z,12.97
2023-04-25T04:42:22.882Z,16.93
2023-04-25T04:44:49.447Z,8.57
2023-04-25T04:47:16.288Z,8.97
2023-04-25T04:49:42.893Z,12.10
2023-04-25T04:52:09.473Z,7.73
2023-04-25T04:54:36.468Z,10.37
2023-04-25T04:57:03.108Z,7.10
2023-04-25T04:59:30.172Z,8.37
2023-04-25T05:01:57.213Z,10.10
2023-04-25T05:04:23.849Z,5.87
2023-04-25T05:06:50.760Z,7.90
2023-04-25T05:09:17.994Z,10.97
2023-04-25T05:11:44.742Z,11.67
2023-04-25T05:14:11.369Z,9.00
2023-04-25T05:16:38.766Z,7.97
2023-04-25T05:19:05.649Z,6.37
2023-04-25T05:21:32.522Z,12.70
2023-04-25T05:23:59.074Z,10.17
2023-04-25T05:26:25.715Z,8.23
2023-04-25T05:28:52.457Z,8.30
2023-04-25T05:31:19.854Z,10.97
2023-04-25T05:33:46.536Z,7.37
2023-04-25T05:36:13.085Z,6.10
2023-04-25T05:38:39.668Z,8.83
2023-04-25T05:41:06.345Z,9.53
2023-04-25T05:43:32.969Z,11.60
2023-04-25T05:45:59.782Z,7.35
2023-04-25T05:48:26.610Z,7.75
2023-04-25T05:50:53.204Z,11.23
2023-04-25T05:53:20.739Z,5.93
2023-04-25T05:55:48.139Z,10.37
2023-04-25T05:58:14.911Z,8.03
2023-04-25T06:00:43.551Z,9.82
2023-04-25T06:03:15.906Z,5.57
2023-04-25T06:05:44.763Z,9.57
2023-04-25T06:08:11.750Z,9.50
2023-04-25T06:10:38.430Z,10.13
2023-04-25T06:13:06.079Z,5.30
2023-04-25T06:15:35.846Z,11.00
2023-04-25T06:18:03.003Z,8.07
2023-04-25T06:20:29.786Z,6.30
2023-04-25T06:22:56.796Z,7.20
2023-04-25T06:25:23.424Z,7.00
2023-04-25T06:27:50.124Z,9.02
2023-04-25T06:30:19.176Z,8.27
2023-04-25T06:32:45.846Z,9.60
2023-04-25T06:35:14.184Z,7.80
2023-04-25T06:37:41.519Z,6.28
2023-04-25T06:40:09.102Z,6.63
2023-04-25T06:42:35.842Z,9.03
2023-04-25T06:45:03.156Z,6.90
2023-04-25T06:47:30.756Z,7.13
2023-04-25T06:49:57.384Z,6.25
2023-04-25T06:52:24.524Z,7.03
2023-04-25T06:54:51.205Z,5.83
2023-04-25T07:00:06.661Z,4.73
2023-04-25T07:02:33.413Z,5.83
2023-04-25T07:05:01.367Z,2.22
2023-04-25T07:07:28.332Z,5.63
2023-04-25T07:09:55.619Z,8.65
2023-04-25T07:12:22.566Z,6.28
2023-04-25T07:14:49.117Z,4.95
2023-04-25T07:17:16.280Z,3.88
2023-04-25T07:19:43.484Z,7.88
2023-04-25T07:22:10.221Z,4.28
2023-04-25T07:24:37.453Z,6.57
2023-04-25T07:27:04.845Z,5.18
2023-04-25T07:29:32.455Z,6.80
2023-04-25T07:31:59.032Z,5.38
2023-04-25T07:34:26.185Z,7.65
2023-04-25T07:36:53.516Z,7.75
2023-04-25T07:39:20.229Z,7.85
2023-04-25T07:41:47.185Z,14.27
2023-04-25T07:44:14.257Z,8.75
2023-04-25T07:46:41.157Z,3.83
2023-04-25T07:49:07.734Z,6.13
2023-04-25T07:51:34.430Z,6.30
2023-04-25T07:54:01.649Z,7.18
2023-04-25T07:56:31.808Z,4.60
2023-04-25T07:59:05.416Z,8.45
2023-04-25T08:01:32.145Z,9.98
2023-04-25T08:03:59.386Z,8.60
2023-04-25T08:06:26.774Z,7.32
2023-04-25T08:08:53.778Z,8.75
2023-04-25T08:11:20.510Z,6.93
2023-04-25T08:13:47.042Z,4.38
2023-04-25T08:16:13.710Z,6.38
2023-04-25T08:18:40.400Z,4.00
2023-04-25T08:21:07.890Z,5.07
2023-04-25T08:23:35.311Z,4.63
2023-04-25T08:26:02.319Z,6.38
2023-04-25T08:28:29.607Z,5.70
2023-04-25T08:30:56.861Z,6.80
2023-04-25T08:33:23.831Z,5.00
2023-04-25T08:35:50.509Z,4.32
2023-04-25T08:38:19.520Z,5.97
2023-04-25T08:40:51.842Z,5.40
2023-04-25T08:43:20.326Z,4.10
2023-04-25T08:45:48.254Z,5.60
2023-04-25T08:48:17.534Z,2.97
2023-04-25T08:50:52.630Z,5.63
2023-04-25T08:53:28.494Z,4.05
2023-04-25T08:55:58.826Z,4.50
2023-04-25T08:58:25.584Z,4.35
2023-04-25T09:00:53.912Z,3.65
2023-04-25T09:03:21.035Z,2.55
2023-04-25T09:05:48.685Z,4.50
2023-04-25T09:08:15.559Z,2.42
2023-04-25T09:10:42.213Z,3.70
2023-04-25T09:13:16.055Z,2.33
2023-04-25T09:15:53.363Z,2.17
2023-04-25T09:18:30.751Z,3.47
2023-04-25T09:21:13.809Z,4.20
2023-04-25T09:23:44.624Z,2.78
2023-04-25T09:26:14.939Z,4.75
2023-04-25T09:28:44.232Z,3.90
2023-04-25T09:31:12.778Z,4.22
2023-04-25T09:33:39.616Z,4.75
2023-04-25T09:36:12.145Z,5.35
2023-04-25T09:38:46.668Z,3.97
2023-04-25T09:41:13.645Z,2.42
2023-04-25T09:43:40.792Z,3.25
2023-04-25T09:46:12.250Z,4.20
2023-04-25T09:48:39.544Z,4.38
2023-04-25T09:51:14.997Z,3.53
2023-04-25T09:53:53.555Z,4.32
2023-04-25T09:56:22.267Z,2.83
2023-04-25T09:58:52.570Z,2.53
2023-04-25T10:01:20.914Z,4.40
2023-04-25T10:03:50.279Z,3.70
2023-04-25T10:06:21.282Z,1.65
2023-04-25T10:08:51.975Z,4.30
2023-04-25T10:11:19.054Z,3.55
2023-04-25T10:13:46.525Z,3.95
2023-04-25T10:16:14.679Z,3.40
2023-04-25T10:18:41.621Z,4.68
2023-04-25T10:21:08.627Z,3.08
2023-04-25T10:23:37.469Z,3.33
2023-04-25T10:26:05.102Z,5.38
2023-04-25T10:29:02.177Z,2.38
2023-04-25T10:31:31.002Z,3.53
2023-04-25T10:33:57.880Z,3.40
2023-04-25T10:36:28.088Z,4.15
2023-04-25T10:38:55.293Z,4.35
2023-04-25T10:41:24.539Z,5.50
2023-04-25T10:44:01.841Z,2.42
2023-04-25T10:46:32.680Z,3.92
2023-04-25T10:49:01.247Z,5.10
2023-04-25T10:51:51.006Z,6.38
2023-04-25T10:54:21.264Z,1.67
2023-04-25T10:56:50.493Z,3.63
2023-04-25T10:59:18.728Z,2.83
2023-04-25T11:01:57.901Z,2.80
2023-04-25T11:04:36.309Z,4.20
2023-04-25T11:07:27.467Z,5.43
2023-04-25T11:09:54.495Z,3.03
2023-04-25T11:12:21.492Z,4.40
2023-04-25T11:14:48.553Z,2.00
2023-04-25T11:17:15.707Z,3.90
2023-04-25T11:19:42.502Z,2.35
2023-04-25T11:22:11.248Z,5.32
2023-04-25T11:24:38.075Z,2.80
2023-04-25T11:27:06.740Z,3.03
2023-04-25T11:29:36.102Z,3.92
2023-04-25T11:32:03.426Z,8.05
2023-04-25T11:34:31.957Z,3.38
2023-04-25T11:37:00.868Z,5.35
2023-04-25T11:39:28.711Z,3.13
2023-04-25T11:41:56.216Z,4.78
2023-04-25T11:44:23.263Z,3.50
2023-04-25T11:46:49.958Z,6.03
2023-04-25T11:49:19.067Z,3.00
2023-04-25T11:51:47.841Z,4.45
2023-04-25T11:54:15.747Z,4.03
2023-04-25T11:56:43.438Z,3.13
2023-04-25T11:59:10.931Z,5.55
2023-04-25T12:01:39.591Z,4.03
2023-04-25T12:04:24.020Z,4.80
2023-04-25T12:06:56.590Z,5.72
2023-04-25T12:09:34.156Z,5.30
2023-04-25T12:12:06.784Z,4.15
2023-04-25T12:14:35.849Z,4.50
2023-04-25T12:17:05.121Z,4.63
2023-04-25T12:19:37.300Z,2.58
2023-04-25T12:22:22.276Z,6.18
2023-04-25T12:24:49.083Z,5.13
2023-04-25T12:27:17.791Z,4.30
2023-04-25T12:29:55.739Z,3.25
2023-04-25T12:32:22.926Z,3.33
2023-04-25T12:34:49.842Z,2.35
2023-04-25T12:37:16.793Z,6.32
2023-04-25T12:39:43.613Z,5.05
2023-04-25T12:42:12.842Z,3.42
2023-04-25T12:44:40.190Z,1.80
2023-04-25T12:47:07.021Z,4.00
2023-04-25T12:49:33.990Z,6.25
2023-04-25T12:52:00.904Z,4.13
2023-04-25T12:54:27.646Z,3.90
2023-04-25T12:56:54.525Z,2.42
2023-04-25T12:59:22.136Z,4.38
2023-04-25T13:01:48.977Z,3.83
2023-04-25T13:04:16.885Z,3.08
2023-04-25T13:06:44.034Z,4.43
2023-04-25T13:09:11.742Z,4.45
2023-04-25T13:11:38.627Z,5.78
2023-04-25T13:14:06.172Z,3.55
2023-04-25T13:16:33.209Z,3.90
2023-04-25T13:19:00.049Z,5.60
2023-04-25T13:21:28.006Z,5.50
2023-04-25T13:23:55.113Z,2.53
2023-04-25T13:26:22.090Z,2.15
2023-04-25T13:28:48.787Z,3.20
2023-04-25T13:31:15.545Z,3.60
2023-04-25T13:33:42.238Z,4.57
2023-04-25T13:36:09.105Z,3.92
2023-04-25T13:38:35.993Z,3.08
2023-04-25T13:41:02.759Z,5.95
2023-04-25T13:43:29.499Z,3.65
2023-04-25T13:45:56.532Z,4.47
2023-04-25T13:48:23.664Z,5.30
2023-04-25T13:50:50.359Z,2.92
2023-04-25T13:53:17.043Z,2.85
2023-04-25T13:55:43.913Z,3.40
2023-04-25T13:58:11.281Z,4.35
2023-04-25T14:00:40.432Z,1.58
2023-04-25T14:03:08.806Z,5.28
2023-04-25T14:05:40.097Z,3.78
2023-04-25T14:08:08.995Z,4.43
2023-04-25T14:10:36.710Z,4.50
2023-04-25T14:13:04.371Z,3.35
2023-04-25T14:15:35.246Z,3.58
2023-04-25T14:18:02.718Z,5.53
2023-04-25T14:20:30.560Z,2.33
2023-04-25T14:22:58.909Z,5.63
2023-04-25T14:25:26.547Z,7.90
2023-04-25T14:27:53.370Z,5.22
2023-04-25T14:30:21.487Z,4.65
2023-04-25T14:32:50.455Z,5.35
2023-04-25T14:35:17.401Z,5.30
2023-04-25T14:37:44.221Z,6.28
2023-04-25T14:40:11.892Z,6.15
2023-04-25T14:42:38.691Z,3.63
2023-04-25T14:45:08.385Z,5.30
2023-04-25T14:47:37.033Z,5.32
2023-04-25T14:50:03.943Z,2.42
2023-04-25T14:52:30.792Z,3.97
2023-04-25T14:54:57.456Z,4.60
2023-04-25T14:57:24.076Z,2.78
2023-04-25T14:59:50.698Z,8.30
2023-04-25T15:02:17.413Z,5.10
2023-04-25T15:04:44.504Z,2.53
2023-04-25T15:07:11.403Z,5.13
2023-04-25T15:09:51.551Z,10.02
2023-04-25T15:12:18.734Z,4.18
2023-04-25T15:14:46.196Z,3.88
2023-04-25T15:17:18.862Z,4.03
2023-04-25T15:19:45.708Z,4.03
2023-04-25T15:22:12.815Z,3.13
2023-04-25T15:24:39.559Z,2.80
2023-04-25T15:27:09.424Z,2.50
2023-04-25T15:29:36.736Z,2.13
2023-04-25T15:32:03.690Z,3.72
2023-04-25T15:34:30.409Z,3.97
2023-04-25T15:36:58.554Z,3.03
2023-04-25T15:39:25.205Z,5.88
2023-04-25T15:41:51.899Z,3.00
2023-04-25T15:44:18.526Z,2.85
2023-04-25T15:46:52.137Z,4.00
2023-04-25T15:49:21.652Z,3.85
2023-04-25T15:51:49.004Z,5.05
2023-04-25T15:54:16.059Z,3.60
2023-04-25T15:56:43.290Z,6.05
2023-04-25T15:59:09.973Z,3.38
2023-04-25T16:01:38.099Z,3.45
2023-04-25T16:04:05.155Z,4.93
2023-04-25T16:06:32.299Z,3.65
2023-04-25T16:08:59.000Z,2.35
2023-04-25T16:11:26.468Z,5.80
2023-04-25T16:13:53.403Z,4.65
2023-04-25T16:16:20.342Z,5.85
2023-04-25T16:18:46.952Z,8.82
2023-04-25T16:21:17.042Z,5.05
2023-04-25T16:23:43.927Z,6.43
2023-04-25T16:26:10.779Z,5.63
2023-04-25T16:28:37.445Z,4.57
2023-04-25T16:31:04.176Z,11.88
2023-04-25T16:33:31.355Z,4.38
2023-04-25T16:35:58.197Z,4.10
2023-04-25T16:38:24.804Z,4.50
2023-04-25T16:40:51.471Z,6.55
2023-04-25T16:43:20.397Z,5.72
2023-04-25T16:45:46.957Z,5.68
2023-04-25T16:48:13.510Z,5.70
2023-04-25T16:50:40.221Z,9.00
2023-04-25T16:53:06.785Z,7.80
2023-04-25T16:55:33.311Z,6.32
2023-04-25T16:57:59.913Z,4.57
2023-04-25T17:00:26.782Z,3.45
2023-04-25T17:02:53.462Z,3.47
2023-04-25T17:05:20.615Z,5.40
2023-04-25T17:07:47.241Z,6.10
2023-04-25T17:10:13.890Z,4.47
2023-04-25T17:12:40.577Z,4.38
2023-04-25T17:15:07.817Z,5.32
2023-04-25T17:17:34.538Z,5.25
2023-04-25T17:20:01.217Z,3.90
2023-04-25T17:22:28.103Z,4.97
2023-04-25T17:24:54.889Z,7.43
2023-04-25T17:27:21.646Z,3.50
2023-04-25T17:29:48.278Z,6.15
2023-04-25T17:32:17.364Z,5.77
2023-04-25T17:34:46.041Z,5.88
2023-04-25T17:37:16.349Z,6.50
2023-04-25T17:39:44.316Z,5.47
2023-04-25T17:42:11.792Z,4.32
2023-04-25T17:44:39.397Z,7.53
2023-04-25T17:47:07.989Z,4.97
2023-04-25T17:49:35.249Z,5.35
2023-04-25T17:52:01.965Z,6.50
2023-04-25T17:54:29.057Z,6.43
2023-04-25T17:56:56.466Z,5.20
2023-04-25T17:59:23.293Z,7.30
2023-04-25T18:01:49.965Z,5.07
2023-04-25T18:04:17.472Z,4.97
2023-04-25T18:06:44.108Z,5.17
2023-04-25T18:09:23.697Z,4.45
2023-04-25T18:11:54.996Z,3.00
2023-04-25T18:14:22.723Z,3.30
2023-04-25T18:16:52.812Z,5.70
2023-04-25T18:19:22.649Z,3.20
2023-04-25T18:21:54.532Z,4.50
2023-04-25T18:24:22.339Z,4.57
2023-04-25T18:26:49.661Z,4.33
2023-04-25T18:29:32.098Z,4.13
2023-04-25T18:31:59.817Z,6.23
2023-04-25T18:34:27.465Z,5.80
2023-04-25T18:36:56.161Z,6.07
2023-04-25T18:39:24.306Z,3.53
2023-04-25T18:41:57.135Z,4.60
2023-04-25T18:44:25.366Z,4.73
2023-04-25T18:46:52.554Z,5.10
2023-04-25T18:49:19.406Z,3.20
2023-04-25T18:51:46.745Z,5.53
2023-04-25T18:54:13.861Z,2.53
2023-04-25T18:56:41.231Z,2.57
2023-04-25T18:59:07.813Z,3.97
2023-04-25T19:01:34.512Z,3.57
2023-04-25T19:04:04.213Z,7.67
2023-04-25T19:06:32.846Z,5.30
2023-04-25T19:08:59.410Z,4.77
2023-04-25T19:11:26.229Z,4.77
2023-04-25T19:13:55.479Z,5.23
2023-04-25T19:16:22.645Z,7.83
2023-04-25T19:18:51.859Z,6.80
2023-04-25T19:21:18.921Z,8.77
2023-04-25T19:23:46.296Z,5.23
2023-04-25T19:26:13.223Z,9.97
2023-04-25T19:28:39.847Z,4.40
2023-04-25T19:31:07.205Z,4.67
2023-04-25T19:33:33.999Z,6.93
2023-04-25T19:36:00.728Z,5.70
2023-04-25T19:38:27.666Z,7.80
2023-04-25T19:40:54.384Z,6.80
2023-04-25T19:43:21.096Z,7.63
2023-04-25T19:45:47.952Z,8.87
2023-04-25T19:48:15.287Z,8.87
2023-04-25T19:50:42.219Z,11.03
2023-04-25T19:53:09.678Z,6.60
2023-04-25T19:55:36.721Z,10.50
2023-04-25T19:58:06.881Z,10.10
2023-04-25T20:00:33.792Z,8.30
2023-04-25T20:03:01.230Z,13.60
2023-04-25T20:05:28.439Z,12.73
2023-04-25T20:07:55.451Z,13.30
2023-04-25T20:10:22.489Z,11.43
2023-04-25T20:12:50.049Z,12.40
2023-04-25T20:15:18.028Z,12.40
2023-04-25T20:17:45.138Z,8.30
2023-04-25T20:20:12.439Z,9.50
2023-04-25T20:22:40.798Z,11.23
2023-04-25T20:25:12.465Z,8.07
2023-04-25T20:27:39.752Z,10.70
2023-04-25T20:30:08.768Z,7.37
2023-04-25T20:32:36.834Z,10.37
2023-04-25T20:35:10.539Z,12.37
2023-04-25T20:37:37.932Z,6.87
2023-04-25T20:40:08.986Z,10.40
2023-04-25T20:42:36.677Z,7.27
2023-04-25T20:45:08.410Z,5.27
2023-04-25T20:47:35.627Z,5.17
2023-04-25T20:50:04.336Z,6.07
2023-04-25T20:52:32.816Z,5.17
2023-04-25T20:55:00.074Z,3.63
2023-04-25T20:57:26.751Z,5.73
2023-04-25T20:59:53.893Z,4.13
2023-04-25T21:02:20.609Z,8.20
2023-04-25T21:04:47.283Z,8.50
2023-04-25T21:07:14.130Z,7.80
2023-04-25T21:09:41.762Z,6.70
2023-04-25T21:12:08.794Z,4.50
2023-04-25T21:14:35.380Z,6.10
2023-04-25T21:17:02.059Z,7.33
2023-04-25T21:19:28.754Z,6.07
2023-04-25T21:21:55.398Z,7.73
2023-04-25T21:24:22.042Z,7.27
2023-04-25T21:26:48.592Z,8.37
2023-04-25T21:29:15.252Z,6.50
2023-04-25T21:31:42.364Z,5.13
2023-04-25T21:34:09.330Z,7.97
2023-04-25T21:36:35.900Z,7.03
2023-04-25T21:39:02.616Z,7.97
2023-04-25T21:41:30.866Z,8.00
2023-04-25T21:43:57.490Z,8.10
2023-04-25T21:46:25.381Z,7.90
2023-04-25T21:48:52.460Z,7.60
2023-04-25T21:51:19.528Z,5.57
2023-04-25T21:53:46.251Z,10.23
2023-04-25T21:56:12.849Z,8.13
2023-04-25T21:58:39.485Z,9.83
2023-04-25T22:01:06.118Z,7.77
2023-04-25T22:03:33.427Z,8.87
2023-04-25T22:06:00.318Z,5.80
2023-04-25T22:08:27.009Z,6.47
2023-04-25T22:10:55.225Z,5.87
2023-04-25T22:13:22.745Z,8.93
2023-04-25T22:15:49.622Z,9.97
2023-04-25T22:18:16.459Z,7.90
2023-04-25T22:20:44.299Z,10.07
2023-04-25T22:23:12.097Z,7.53
2023-04-25T22:25:38.914Z,7.90
2023-04-25T22:28:05.724Z,10.10
2023-04-25T22:30:32.655Z,11.23
2023-04-25T22:32:59.470Z,8.37
2023-04-25T22:35:26.319Z,6.60
2023-04-25T22:37:53.084Z,5.77
2023-04-25T22:40:19.949Z,11.00
2023-04-25T22:42:46.651Z,9.23
2023-04-25T22:45:13.434Z,10.43
2023-04-25T22:47:40.380Z,6.97
2023-04-25T22:50:12.875Z,7.57
2023-04-25T22:52:39.726Z,6.47
2023-04-25T22:55:06.944Z,6.90
2023-04-25T22:57:33.612Z,7.33
2023-04-25T23:00:00.246Z,5.40
2023-04-25T23:02:27.457Z,10.23
2023-04-25T23:04:54.992Z,7.63
2023-04-25T23:07:21.740Z,6.53
2023-04-25T23:09:49.227Z,6.67
2023-04-25T23:12:19.294Z,11.00
2023-04-25T23:14:50.646Z,9.57
2023-04-25T23:17:17.241Z,5.30
2023-04-25T23:19:44.073Z,7.93
2023-04-25T23:22:10.946Z,12.33
2023-04-25T23:24:38.981Z,8.00
2023-04-25T23:27:05.615Z,11.03
2023-04-25T23:29:33.971Z,5.40
2023-04-25T23:32:01.568Z,8.20
2023-04-25T23:34:34.226Z,5.77
2023-04-25T23:37:01.385Z,7.87
2023-04-25T23:39:28.322Z,7.87
2023-04-25T23:41:55.007Z,4.83
2023-04-25T23:44:22.222Z,10.03
2023-04-25T23:46:49.436Z,7.07
2023-04-25T23:49:16.111Z,6.90
2023-04-25T23:51:42.997Z,4.83
2023-04-25T23:54:09.655Z,5.07
2023-04-25T23:56:36.312Z,5.63
2023-04-25T23:59:03.704Z,7.77
